Time;durP1;ratioP1;P1;durP2;ratioP2;P2;SDS_P1;SDS_P2;PMS_P1;PMS_P2;Temp;Humidity;BMP_temperature;BMP_pressure;BME280_temperature;BME280_humidity;BME280_pressure;Samples;Min_cycle;Max_cycle;Signal;HPM_P1;HPM_P2
2023/02/25 00:01:56;;;;;;;44.30;20.90;;;;;;;4.86;100.00;95845.05;106101;1259;61324;-78
2023/02/25 00:04:26;;;;;;;27.60;13.80;;;;;;;4.85;100.00;95832.19;106041;1255;61269;-79
2023/02/25 00:06:52;;;;;;;27.90;14.30;;;;;;;4.81;100.00;95824.16;105949;1261;152451;-78
2023/02/25 00:09:19;;;;;;;27.90;14.30;;;;;;;4.79;100.00;95820.49;106052;1260;61326;-79
2023/02/25 00:11:45;;;;;;;44.80;28.30;;;;;;;4.79;100.00;95821.62;106012;1261;68828;-78
2023/02/25 00:14:12;;;;;;;55.50;31.60;;;;;;;4.80;100.00;95825.85;106039;1260;61225;-78
2023/02/25 00:16:38;;;;;;;36.00;21.30;;;;;;;4.80;100.00;95823.58;106056;1255;61346;-79
2023/02/25 00:19:05;;;;;;;31.90;18.80;;;;;;;4.78;100.00;95821.63;105998;1259;61342;-78
2023/02/25 00:21:31;;;;;;;25.80;15.00;;;;;;;4.77;100.00;95822.07;106004;1254;61397;-79
2023/02/25 00:23:58;;;;;;;32.40;20.00;;;;;;;4.75;100.00;95822.65;106031;1260;61260;-78
2023/02/25 00:26:24;;;;;;;24.70;14.90;;;;;;;4.72;100.00;95813.27;106024;1258;61336;-78
2023/02/25 00:28:51;;;;;;;28.00;16.70;;;;;;;4.69;100.00;95813.69;106092;1260;61378;-79
2023/02/25 00:31:22;;;;;;;32.00;18.50;;;;;;;4.67;100.00;95802.24;106128;1254;61308;-78
2023/02/25 00:33:49;;;;;;;38.70;23.60;;;;;;;4.66;100.00;95806.61;106078;1258;72496;-78
2023/02/25 00:36:21;;;;;;;57.20;38.60;;;;;;;4.66;100.00;95814.45;105997;1258;61298;-78
2023/02/25 00:38:49;;;;;;;53.80;29.10;;;;;;;4.65;100.00;95814.84;106013;1254;61998;-78
2023/02/25 00:41:17;;;;;;;57.10;35.70;;;;;;;4.62;100.00;95815.15;106005;1260;74558;-78
2023/02/25 00:43:48;;;;;;;52.50;34.00;;;;;;;4.60;100.00;95812.61;106060;1255;72384;-78
2023/02/25 00:46:14;;;;;;;60.20;40.80;;;;;;;4.57;100.00;95805.36;106119;1254;72580;-78
2023/02/25 00:48:41;;;;;;;54.60;36.80;;;;;;;4.54;100.00;95794.10;106049;1254;61345;-78
2023/02/25 00:51:09;;;;;;;57.40;34.90;;;;;;;4.53;100.00;95789.73;106032;1254;61200;-78
2023/02/25 00:53:36;;;;;;;45.60;28.10;;;;;;;4.54;100.00;95785.48;106192;1254;73615;-78
2023/02/25 00:56:03;;;;;;;51.10;25.70;;;;;;;4.54;100.00;95778.17;106029;1258;69909;-78
2023/02/25 00:58:30;;;;;;;49.20;24.60;;;;;;;4.55;100.00;95776.18;106019;1254;71451;-79
2023/02/25 01:00:56;;;;;;;49.60;29.80;;;;;;;4.55;100.00;95765.77;105985;1259;61121;-78
2023/02/25 01:03:23;;;;;;;57.20;36.30;;;;;;;4.53;100.00;95757.64;106064;1257;62233;-78
2023/02/25 01:05:49;;;;;;;52.70;32.30;;;;;;;4.52;100.00;95760.44;106083;1260;61374;-79
2023/02/25 01:08:17;;;;;;;48.90;32.30;;;;;;;4.54;100.00;95757.95;106179;1255;61252;-80
2023/02/25 01:10:44;;;;;;;54.20;34.50;;;;;;;4.54;100.00;95750.23;106036;1257;70820;-78
2023/02/25 01:13:10;;;;;;;54.40;31.80;;;;;;;4.54;100.00;95749.70;106089;1254;61273;-78
2023/02/25 01:15:36;;;;;;;44.50;26.70;;;;;;;4.55;100.00;95748.01;106060;1254;61158;-78
2023/02/25 01:18:03;;;;;;;36.00;22.40;;;;;;;4.56;100.00;95754.11;106184;1260;61327;-79
2023/02/25 01:20:29;;;;;;;44.00;26.10;;;;;;;4.55;100.00;95754.66;106030;1258;61232;-79
2023/02/25 01:22:56;;;;;;;43.10;22.50;;;;;;;4.56;100.00;95755.23;106041;1254;62752;-78
2023/02/25 01:25:24;;;;;;;54.50;35.80;;;;;;;4.55;100.00;95760.73;106030;1255;61374;-79
2023/02/25 01:27:54;;;;;;;50.00;33.10;;;;;;;4.59;100.00;95776.04;106083;1254;61154;-79
2023/02/25 01:30:21;;;;;;;48.00;31.50;;;;;;;4.62;100.00;95771.54;106041;1255;73491;-79
2023/02/25 01:32:47;;;;;;;55.50;33.90;;;;;;;4.63;100.00;95779.26;106018;1258;61010;-78
2023/02/25 01:35:14;;;;;;;55.60;33.50;;;;;;;4.65;100.00;95777.70;106067;1255;61316;-79
2023/02/25 01:37:42;;;;;;;40.90;23.30;;;;;;;4.71;100.00;95806.09;106043;1254;61337;-78
2023/02/25 01:40:15;;;;;;;7.20;5.10;;;;;;;4.71;100.00;95813.48;106068;1254;61333;-79
2023/02/25 01:42:43;;;;;;;11.60;4.20;;;;;;;4.60;100.00;95808.69;106035;1260;74676;-79
2023/02/25 01:45:12;;;;;;;8.50;3.60;;;;;;;4.56;100.00;95809.48;106130;1255;71411;-79
2023/02/25 01:47:39;;;;;;;7.20;2.60;;;;;;;4.52;100.00;95808.55;106074;1254;72596;-79
2023/02/25 01:50:06;;;;;;;7.90;2.00;;;;;;;4.49;100.00;95804.75;106022;1260;61273;-79
2023/02/25 01:52:32;;;;;;;3.20;1.60;;;;;;;4.47;100.00;95799.20;106064;1254;61340;-80
2023/02/25 01:54:59;;;;;;;6.20;2.60;;;;;;;4.47;100.00;95793.14;106012;1261;74386;-79
2023/02/25 01:57:25;;;;;;;4.30;2.00;;;;;;;4.49;100.00;95787.36;105997;1254;70950;-79
2023/02/25 01:59:52;;;;;;;3.80;2.20;;;;;;;4.49;100.00;95785.59;106030;1254;61328;-78
2023/02/25 02:02:20;;;;;;;5.80;2.30;;;;;;;4.49;100.00;95784.42;106055;1254;62192;-79
2023/02/25 02:04:50;;;;;;;4.60;2.10;;;;;;;4.49;100.00;95784.91;106061;1260;60303;-79
2023/02/25 02:07:17;;;;;;;4.70;2.30;;;;;;;4.51;100.00;95785.52;106044;1255;74598;-79
2023/02/25 02:09:54;;;;;;;6.80;3.20;;;;;;;4.52;100.00;95777.70;106057;1254;70047;-80
2023/02/25 02:12:41;;;;;;;4.30;2.30;;;;;;;4.54;100.00;95776.36;106077;1254;72500;-79
2023/02/25 02:15:10;;;;;;;5.30;2.30;;;;;;;4.55;100.00;95777.52;106118;1254;63339;-80
2023/02/25 02:17:54;;;;;;;6.60;4.10;;;;;;;4.57;100.00;95780.42;106561;1254;61176;-80
2023/02/25 02:20:27;;;;;;;9.20;3.60;;;;;;;4.58;100.00;95763.02;106411;1254;73730;-79
2023/02/25 02:23:30;;;;;;;11.20;3.70;;;;;;;4.59;100.00;95775.23;106125;1259;69952;-79
2023/02/25 02:26:27;;;;;;;10.00;4.70;;;;;;;4.59;100.00;95773.13;106033;1254;72576;-79
2023/02/25 02:29:25;;;;;;;6.40;3.70;;;;;;;4.56;100.00;95756.69;106075;1258;61340;-80
2023/02/25 02:32:19;;;;;;;9.50;4.10;;;;;;;4.55;100.00;95740.98;106080;1257;61214;-79
2023/02/25 02:34:49;;;;;;;7.70;3.70;;;;;;;4.53;100.00;95743.70;106026;1254;74486;-78
2023/02/25 02:37:36;;;;;;;23.10;12.00;;;;;;;4.54;100.00;95740.80;106030;1254;71162;-79
2023/02/25 02:40:21;;;;;;;18.40;9.80;;;;;;;4.55;100.00;95735.35;106039;1254;72600;-79
2023/02/25 02:42:53;;;;;;;12.90;8.20;;;;;;;4.55;100.00;95737.34;106059;1254;61282;-79
2023/02/25 02:45:35;;;;;;;16.40;7.30;;;;;;;4.55;100.00;95739.70;106012;1254;61112;-78
2023/02/25 02:48:08;;;;;;;13.10;7.80;;;;;;;4.54;100.00;95735.09;106086;1255;74492;-78
2023/02/25 02:50:40;;;;;;;10.40;6.80;;;;;;;4.53;100.00;95730.50;106092;1254;69916;-79
2023/02/25 02:53:10;;;;;;;10.20;5.10;;;;;;;4.53;100.00;95728.67;106174;1260;70720;-79
2023/02/25 02:55:45;;;;;;;11.50;6.60;;;;;;;4.52;100.00;95726.36;106143;1257;61339;-79
2023/02/25 02:58:24;;;;;;;12.70;7.70;;;;;;;4.50;100.00;95723.67;106121;1254;61170;-79
2023/02/25 03:00:57;;;;;;;32.20;19.60;;;;;;;4.49;100.00;95730.02;106017;1259;74926;-79
2023/02/25 03:03:34;;;;;;;16.40;10.00;;;;;;;4.49;100.00;95731.16;106116;1256;70978;-78
2023/02/25 03:06:07;;;;;;;12.10;7.70;;;;;;;4.48;100.00;95734.77;105890;1257;72406;-79
2023/02/25 03:08:38;;;;;;;13.60;9.20;;;;;;;4.46;100.00;95739.53;106112;1255;61384;-78
2023/02/25 03:11:05;;;;;;;11.50;8.30;;;;;;;4.43;100.00;95743.16;106011;1258;61285;-78
2023/02/25 03:13:31;;;;;;;12.40;8.60;;;;;;;4.42;100.00;95743.23;105953;1257;61445;-78
2023/02/25 03:15:58;;;;;;;22.80;13.60;;;;;;;4.38;100.00;95739.50;106016;1257;61343;-78
2023/02/25 03:18:35;;;;;;;34.40;16.20;;;;;;;4.31;100.00;95744.77;106042;1257;72598;-79
2023/02/25 03:21:03;;;;;;;25.70;15.60;;;;;;;4.28;100.00;95746.27;105957;1254;61372;-78
2023/02/25 03:23:30;;;;;;;34.90;18.40;;;;;;;4.29;100.00;95742.52;105927;1255;61241;-78
2023/02/25 03:26:20;;;;;;;35.80;20.30;;;;;;;4.27;100.00;95737.70;105973;1259;73902;-78
2023/02/25 03:28:47;;;;;;;45.50;24.80;;;;;;;4.26;100.00;95738.35;106032;1257;71186;-79
2023/02/25 03:31:35;;;;;;;46.20;26.50;;;;;;;4.27;100.00;95734.23;105967;1257;61173;-78
2023/02/25 03:34:06;;;;;;;47.80;25.00;;;;;;;4.28;100.00;95734.55;106038;1257;61249;-79
2023/02/25 03:36:41;;;;;;;24.70;17.20;;;;;;;4.31;100.00;95740.92;105972;1257;61298;-78
2023/02/25 03:39:14;;;;;;;16.80;11.40;;;;;;;4.32;100.00;95740.91;105940;1257;74587;-78
2023/02/25 03:41:43;;;;;;;15.40;12.20;;;;;;;4.33;100.00;95744.13;106022;1254;71069;-79
2023/02/25 03:44:12;;;;;;;10.80;7.30;;;;;;;4.34;100.00;95746.85;106236;1254;72561;-79
2023/02/25 03:46:39;;;;;;;8.50;5.30;;;;;;;4.35;100.00;95752.67;106111;1254;61148;-78
2023/02/25 03:49:06;;;;;;;9.40;4.10;;;;;;;4.38;100.00;95759.79;106144;1257;61256;-79
2023/02/25 03:51:35;;;;;;;7.30;5.30;;;;;;;4.40;100.00;95758.78;106049;1259;61239;-79
2023/02/25 03:54:01;;;;;;;8.90;3.60;;;;;;;4.43;100.00;95767.95;105977;1254;71054;-78
2023/02/25 03:56:28;;;;;;;7.00;3.90;;;;;;;4.48;100.00;95764.44;106031;1254;62171;-78
2023/02/25 03:58:54;;;;;;;10.20;4.60;;;;;;;4.52;100.00;95757.27;106023;1254;61287;-79
2023/02/25 04:01:26;;;;;;;6.70;4.60;;;;;;;4.55;100.00;95761.00;106024;1257;61576;-78
2023/02/25 04:03:52;;;;;;;9.00;5.30;;;;;;;4.55;100.00;95759.11;106030;1259;74565;-78
2023/02/25 04:06:22;;;;;;;9.50;5.30;;;;;;;4.55;100.00;95767.44;106057;1254;61365;-77
2023/02/25 04:08:48;;;;;;;8.70;4.30;;;;;;;4.53;100.00;95773.41;106054;1259;72598;-77
2023/02/25 04:11:15;;;;;;;9.10;5.50;;;;;;;4.52;100.00;95775.63;106039;1254;61371;-77
2023/02/25 04:13:41;;;;;;;11.60;5.30;;;;;;;4.50;100.00;95772.33;106014;1257;61163;-78
2023/02/25 04:16:08;;;;;;;10.40;5.80;;;;;;;4.49;100.00;95781.08;106047;1254;61795;-77
2023/02/25 04:18:34;;;;;;;9.90;4.90;;;;;;;4.49;100.00;95788.88;106056;1254;61231;-78
2023/02/25 04:21:00;;;;;;;7.30;5.10;;;;;;;4.48;100.00;95807.02;106023;1254;62180;-78
2023/02/25 04:23:27;;;;;;;9.70;5.20;;;;;;;4.46;100.00;95810.86;106070;1257;61348;-77
2023/02/25 04:25:53;;;;;;;9.90;6.00;;;;;;;4.39;100.00;95819.02;106044;1254;61371;-80
2023/02/25 04:28:20;;;;;;;9.90;5.80;;;;;;;4.34;100.00;95808.59;106073;1254;61365;-79
2023/02/25 04:30:46;;;;;;;31.90;21.70;;;;;;;4.30;100.00;95812.14;106044;1254;61443;-79
2023/02/25 04:33:13;;;;;;;25.00;14.40;;;;;;;4.14;100.00;95819.11;106010;1259;61228;-77
2023/02/25 04:35:39;;;;;;;22.80;15.40;;;;;;;3.72;100.00;95818.48;106058;1254;61237;-77
2023/02/25 04:38:05;;;;;;;25.30;16.30;;;;;;;3.39;100.00;95829.19;106050;1254;62216;-77
2023/02/25 04:40:32;;;;;;;28.60;15.90;;;;;;;3.15;100.00;95839.17;106106;1254;61327;-79
2023/02/25 04:42:58;;;;;;;28.60;19.40;;;;;;;2.97;100.00;95837.38;106058;1254;61215;-79
2023/02/25 04:45:25;;;;;;;25.70;16.30;;;;;;;2.89;100.00;95840.56;106015;1259;63353;-79
2023/02/25 04:47:52;;;;;;;27.60;19.50;;;;;;;2.85;100.00;95846.48;106200;1258;61432;-79
2023/02/25 04:50:19;;;;;;;29.30;17.30;;;;;;;2.78;100.00;95852.83;106100;1254;61285;-79
2023/02/25 04:52:45;;;;;;;34.70;22.20;;;;;;;2.72;100.00;95860.99;106067;1254;62292;-79
2023/02/25 04:55:12;;;;;;;44.50;32.30;;;;;;;2.74;100.00;95869.77;106149;1258;61369;-81
2023/02/25 04:57:41;;;;;;;21.80;15.20;;;;;;;2.72;100.00;95868.00;106199;1254;72629;-79
2023/02/25 05:00:14;;;;;;;;;;;;;;;2.69;100.00;95869.91;106100;1254;61344;-79
2023/02/25 05:02:42;;;;;;;31.20;24.90;;;;;;;2.65;100.00;95874.64;106055;1254;62779;-79
2023/02/25 05:05:09;;;;;;;20.20;13.70;;;;;;;2.63;100.00;95870.76;106154;1254;74588;-77
2023/02/25 05:07:36;;;;;;;20.30;14.50;;;;;;;2.57;100.00;95869.42;106080;1254;69851;-77
2023/02/25 05:10:03;;;;;;;35.00;19.80;;;;;;;2.50;100.00;95864.98;106018;1255;61323;-80
2023/02/25 05:12:30;;;;;;;40.90;24.30;;;;;;;2.46;100.00;95862.72;106153;1254;61332;-77
2023/02/25 05:14:56;;;;;;;39.30;29.60;;;;;;;2.44;100.00;95862.10;106091;1254;61988;-77
2023/02/25 05:17:22;;;;;;;28.70;20.10;;;;;;;2.39;100.00;95870.59;106045;1257;62277;-77
2023/02/25 05:19:49;;;;;;;29.80;18.90;;;;;;;2.37;100.00;95874.70;106050;1258;61390;-77
2023/02/25 05:22:16;;;;;;;16.70;11.10;;;;;;;2.36;100.00;95874.82;106004;1259;61232;-78
2023/02/25 05:24:42;;;;;;;24.50;14.40;;;;;;;2.36;100.00;95876.60;106046;1254;61253;-77
2023/02/25 05:27:09;;;;;;;43.50;24.10;;;;;;;2.34;100.00;95877.20;106077;1259;61336;-77
2023/02/25 05:29:35;;;;;;;34.70;20.20;;;;;;;2.36;100.00;95879.27;106048;1259;61452;-77
2023/02/25 05:32:01;;;;;;;18.90;13.50;;;;;;;2.36;100.00;95879.48;106195;1258;61283;-77
2023/02/25 05:34:28;;;;;;;26.40;15.00;;;;;;;2.39;100.00;95879.13;106054;1254;61266;-77
2023/02/25 05:36:54;;;;;;;29.10;21.20;;;;;;;2.40;100.00;95876.94;106057;1259;61419;-77
2023/02/25 05:39:21;;;;;;;18.30;11.90;;;;;;;2.42;100.00;95877.52;106087;1257;61281;-77
2023/02/25 05:41:50;;;;;;;12.50;9.30;;;;;;;2.41;100.00;95877.52;106090;1254;74497;-77
2023/02/25 05:44:17;;;;;;;17.40;9.60;;;;;;;2.42;100.00;95884.47;106053;1259;70904;-77
2023/02/25 05:46:44;;;;;;;26.70;17.10;;;;;;;2.44;100.00;95890.70;106141;1254;71403;-77
2023/02/25 05:49:10;;;;;;;32.10;22.30;;;;;;;2.43;100.00;95892.16;106027;1254;61266;-77
2023/02/25 05:51:36;;;;;;;33.80;23.80;;;;;;;2.47;100.00;95890.25;106154;1254;61234;-77
2023/02/25 05:54:03;;;;;;;27.80;19.20;;;;;;;2.50;100.00;95886.00;106280;1254;61368;-77
2023/02/25 05:56:29;;;;;;;31.90;21.90;;;;;;;2.51;100.00;95890.33;106096;1254;61341;-77
2023/02/25 05:58:56;;;;;;;18.90;14.40;;;;;;;2.50;100.00;95889.33;106023;1254;61895;-77
2023/02/25 06:01:26;;;;;;;19.60;13.60;;;;;;;2.52;100.00;95886.95;106050;1254;61268;-77
2023/02/25 06:03:57;;;;;;;15.10;9.90;;;;;;;2.58;100.00;95890.33;105990;1254;61254;-77
2023/02/25 06:06:25;;;;;;;18.20;11.20;;;;;;;2.65;100.00;95896.20;106062;1254;74639;-77
2023/02/25 06:08:52;;;;;;;39.20;23.90;;;;;;;2.66;100.00;95902.35;106029;1254;70642;-77
2023/02/25 06:11:20;;;;;;;50.30;29.20;;;;;;;2.67;100.00;95902.73;106046;1254;61269;-77
2023/02/25 06:13:48;;;;;;;26.10;16.70;;;;;;;2.64;100.00;95905.20;106110;1259;61262;-77
2023/02/25 06:16:15;;;;;;;22.20;13.70;;;;;;;2.62;100.00;95897.55;106091;1254;61273;-77
2023/02/25 06:18:41;;;;;;;23.70;14.00;;;;;;;2.59;100.00;95896.31;106112;1257;74566;-77
2023/02/25 06:21:10;;;;;;;24.20;14.50;;;;;;;2.56;100.00;95899.97;106046;1253;61294;-80
2023/02/25 06:23:37;;;;;;;19.80;13.30;;;;;;;2.56;100.00;95902.10;106138;1254;72590;-77
2023/02/25 06:26:04;;;;;;;13.30;8.40;;;;;;;2.59;100.00;95905.35;106029;1254;62342;-77
2023/02/25 06:28:31;;;;;;;12.60;8.00;;;;;;;2.62;100.00;95910.77;106011;1259;61211;-78
2023/02/25 06:30:58;;;;;;;13.60;8.10;;;;;;;2.64;100.00;95908.50;106062;1254;73441;-80
2023/02/25 06:33:24;;;;;;;13.90;7.20;;;;;;;2.64;100.00;95906.48;106026;1254;63383;-77
2023/02/25 06:35:52;;;;;;;11.40;6.80;;;;;;;2.66;100.00;95898.56;106037;1254;61387;-77
2023/02/25 06:38:18;;;;;;;13.70;7.90;;;;;;;2.65;100.00;95896.64;106069;1254;61320;-77
2023/02/25 06:40:46;;;;;;;8.30;5.10;;;;;;;2.66;100.00;95897.59;106045;1258;59938;-76
2023/02/25 06:43:12;;;;;;;10.60;6.90;;;;;;;2.63;100.00;95896.32;106047;1254;73376;-77
2023/02/25 06:45:38;;;;;;;6.70;4.50;;;;;;;2.63;100.00;95905.41;106037;1254;61327;-77
2023/02/25 06:48:05;;;;;;;9.30;5.30;;;;;;;2.64;100.00;95915.14;106023;1254;61322;-77
2023/02/25 06:50:33;;;;;;;9.40;6.30;;;;;;;2.65;100.00;95910.55;106058;1256;61289;-77
2023/02/25 06:52:59;;;;;;;11.90;6.60;;;;;;;2.69;100.00;95914.73;106039;1254;61337;-78
2023/02/25 06:55:25;;;;;;;13.80;9.90;;;;;;;2.90;100.00;95912.83;106041;1253;61374;-78
2023/02/25 06:57:53;;;;;;;14.90;8.40;;;;;;;3.12;100.00;95908.55;106050;1254;61160;-78
2023/02/25 07:00:20;;;;;;;14.70;8.40;;;;;;;3.10;100.00;95906.86;106334;1254;71489;-79
2023/02/25 07:02:46;;;;;;;30.50;17.50;;;;;;;3.08;100.00;95910.80;106132;1256;61215;-79
2023/02/25 07:05:13;;;;;;;11.20;7.40;;;;;;;3.07;100.00;95910.26;106078;1254;61241;-79
2023/02/25 07:07:39;;;;;;;13.90;8.90;;;;;;;3.06;100.00;95909.79;106031;1259;61279;-77
2023/02/25 07:10:06;;;;;;;12.90;8.40;;;;;;;3.08;100.00;95919.14;106064;1254;69823;-78
2023/02/25 07:12:33;;;;;;;12.40;7.50;;;;;;;3.18;100.00;95917.70;105981;1254;71447;-78
2023/02/25 07:14:59;;;;;;;16.40;8.90;;;;;;;3.28;100.00;95912.35;106043;1258;61381;-77
2023/02/25 07:17:25;;;;;;;14.10;8.00;;;;;;;3.40;100.00;95913.23;106054;1256;61227;-79
2023/02/25 07:19:52;;;;;;;7.30;4.70;;;;;;;3.52;100.00;95914.94;106031;1254;61313;-77
2023/02/25 07:22:18;;;;;;;7.60;4.70;;;;;;;3.72;100.00;95918.45;106060;1254;61439;-77
2023/02/25 07:24:45;;;;;;;7.50;5.00;;;;;;;4.07;100.00;95922.61;106030;1254;61348;-77
2023/02/25 07:27:12;;;;;;;5.60;3.90;;;;;;;4.33;100.00;95920.91;106079;1254;61295;-78
2023/02/25 07:29:39;;;;;;;7.50;3.70;;;;;;;4.40;100.00;95922.63;106048;1257;61208;-78
2023/02/25 07:32:07;;;;;;;10.60;5.00;;;;;;;4.53;100.00;95930.64;106362;1254;74813;-78
2023/02/25 07:34:35;;;;;;;9.00;4.80;;;;;;;4.70;100.00;95925.48;106039;1256;71001;-78
2023/02/25 07:37:02;;;;;;;6.90;3.60;;;;;;;4.74;100.00;95928.54;106078;1256;71445;-79
2023/02/25 07:39:28;;;;;;;10.00;4.00;;;;;;;4.75;100.00;95927.98;106022;1254;61365;-79
2023/02/25 07:41:55;;;;;;;7.20;4.20;;;;;;;4.78;100.00;95926.66;106081;1254;61215;-78
2023/02/25 07:44:21;;;;;;;5.40;3.50;;;;;;;4.94;100.00;95924.30;106008;1254;61362;-79
2023/02/25 07:46:48;;;;;;;7.50;4.60;;;;;;;5.17;100.00;95922.89;106056;1254;61333;-78
2023/02/25 07:49:14;;;;;;;7.20;4.50;;;;;;;5.22;100.00;95919.38;106121;1258;61317;-79
2023/02/25 07:51:41;;;;;;;8.40;3.90;;;;;;;5.24;100.00;95915.51;106420;1258;61330;-78
2023/02/25 07:54:07;;;;;;;7.60;4.20;;;;;;;5.26;100.00;95913.28;106434;1254;61366;-78
2023/02/25 07:56:33;;;;;;;9.80;5.10;;;;;;;5.20;100.00;95908.83;106393;1254;61336;-78
2023/02/25 07:59:00;;;;;;;8.00;4.50;;;;;;;5.03;100.00;95912.34;106385;1259;61333;-78
2023/02/25 08:01:28;;;;;;;7.70;4.70;;;;;;;4.83;100.00;95905.86;107245;1254;60283;-78
2023/02/25 08:03:56;;;;;;;5.00;2.70;;;;;;;4.75;100.00;95904.00;108830;1254;61305;-79
2023/02/25 08:06:22;;;;;;;3.80;2.70;;;;;;;4.72;100.00;95897.73;106074;1254;61216;-79
2023/02/25 08:08:53;;;;;;;6.90;3.80;;;;;;;4.68;100.00;95897.44;106047;1259;61262;-78
2023/02/25 08:11:20;;;;;;;4.90;2.50;;;;;;;4.73;100.00;95897.28;106067;1254;70550;-78
2023/02/25 08:13:46;;;;;;;9.20;4.40;;;;;;;4.82;100.00;95894.38;106127;1257;72310;-78
2023/02/25 08:16:15;;;;;;;5.10;2.90;;;;;;;4.99;100.00;95896.13;105981;1256;61233;-78
2023/02/25 08:18:41;;;;;;;10.20;5.80;;;;;;;5.19;100.00;95897.88;105999;1254;61337;-78
2023/02/25 08:21:09;;;;;;;6.30;3.20;;;;;;;5.30;100.00;95896.34;106016;1257;61230;-79
2023/02/25 08:23:35;;;;;;;5.70;3.30;;;;;;;5.47;100.00;95900.53;106188;1255;69969;-78
2023/02/25 08:26:02;;;;;;;6.50;3.80;;;;;;;5.49;100.00;95900.66;105970;1256;61314;-78
2023/02/25 08:28:30;;;;;;;6.70;4.10;;;;;;;5.51;100.00;95906.61;105992;1254;61235;-78
2023/02/25 08:30:57;;;;;;;5.50;2.60;;;;;;;5.44;100.00;95906.59;106051;1260;61248;-78
2023/02/25 08:33:23;;;;;;;4.80;2.70;;;;;;;5.30;100.00;95901.50;106079;1254;73438;-79
2023/02/25 08:35:50;;;;;;;5.30;3.90;;;;;;;5.17;100.00;95904.20;106142;1254;61399;-80
2023/02/25 08:38:16;;;;;;;4.90;3.00;;;;;;;5.05;100.00;95908.33;106100;1254;61444;-79
2023/02/25 08:40:43;;;;;;;6.60;3.50;;;;;;;5.01;100.00;95910.06;106067;1254;61431;-79
2023/02/25 08:43:09;;;;;;;10.90;5.10;;;;;;;5.06;100.00;95915.14;105940;1254;61263;-79
2023/02/25 08:45:36;;;;;;;5.80;3.70;;;;;;;5.25;100.00;95917.85;106190;1254;61205;-80
2023/02/25 08:48:03;;;;;;;5.50;2.50;;;;;;;5.44;99.43;95923.69;106125;1258;70844;-78
2023/02/25 08:50:29;;;;;;;4.90;2.60;;;;;;;5.49;95.66;95928.66;106015;1254;72599;-78
2023/02/25 08:52:56;;;;;;;8.10;3.30;;;;;;;5.73;93.71;95928.73;106034;1254;61908;-78
2023/02/25 08:55:23;;;;;;;6.20;3.00;;;;;;;5.82;94.26;95935.11;106013;1254;61238;-78
2023/02/25 08:57:51;;;;;;;3.60;1.30;;;;;;;5.72;91.49;95937.34;105998;1254;73487;-80
2023/02/25 09:00:18;;;;;;;4.80;2.80;;;;;;;5.55;90.27;95940.73;106089;1254;70870;-78
2023/02/25 09:02:44;;;;;;;3.00;1.40;;;;;;;5.41;91.06;95945.55;105986;1257;72572;-78
2023/02/25 09:05:11;;;;;;;4.10;2.10;;;;;;;5.34;89.07;95948.67;106032;1257;61260;-78
2023/02/25 09:07:37;;;;;;;6.10;2.70;;;;;;;5.19;89.46;95950.60;106058;1254;61362;-79
2023/02/25 09:10:08;;;;;;;5.50;2.50;;;;;;;5.23;89.33;95946.83;106007;1254;61326;-77
2023/02/25 09:12:37;;;;;;;25.20;7.90;;;;;;;5.24;88.33;95946.13;106061;1258;69948;-79
2023/02/25 09:15:04;;;;;;;6.60;3.30;;;;;;;5.46;90.64;95944.60;106009;1254;72067;-78
2023/02/25 09:17:30;;;;;;;5.10;2.00;;;;;;;5.77;89.80;95938.15;105975;1255;61221;-78
2023/02/25 09:20:00;;;;;;;2.70;1.40;;;;;;;5.97;88.47;95941.17;106017;1257;62245;-79
2023/02/25 09:22:27;;;;;;;4.80;2.30;;;;;;;6.05;89.14;95946.61;106035;1257;74689;-78
2023/02/25 09:24:53;;;;;;;4.60;2.30;;;;;;;6.13;88.40;95944.33;105979;1254;70850;-79
2023/02/25 09:27:20;;;;;;;4.50;2.10;;;;;;;6.27;87.68;95945.92;106029;1254;63106;-78
2023/02/25 09:29:46;;;;;;;5.00;2.00;;;;;;;6.46;86.52;95952.33;106016;1254;61215;-77
2023/02/25 09:32:18;;;;;;;4.60;2.50;;;;;;;6.60;83.39;95954.81;105989;1256;61324;-78
2023/02/25 09:34:45;;;;;;;5.30;2.70;;;;;;;6.51;84.06;95960.35;106067;1254;73541;-78
2023/02/25 09:37:13;;;;;;;6.20;2.40;;;;;;;6.48;85.62;95962.71;106014;1260;69938;-78
2023/02/25 09:39:41;;;;;;;5.40;2.40;;;;;;;6.51;86.35;95964.94;106062;1254;73632;-79
2023/02/25 09:42:08;;;;;;;14.60;4.80;;;;;;;6.54;86.93;95967.72;106258;1258;61356;-78
2023/02/25 09:44:37;;;;;;;6.60;2.30;;;;;;;6.55;85.84;95965.76;106022;1257;61234;-78
2023/02/25 09:47:24;;;;;;;6.60;4.10;;;;;;;6.44;84.77;95959.73;106184;1254;73939;-78
2023/02/25 09:50:09;;;;;;;3.70;1.80;;;;;;;6.33;86.53;95959.35;106049;1254;70213;-78
2023/02/25 09:52:59;;;;;;;2.70;1.70;;;;;;;6.21;84.55;95956.67;106037;1258;72643;-78
2023/02/25 09:55:33;;;;;;;4.00;1.80;;;;;;;6.16;83.93;95957.07;105930;1256;61259;-79
2023/02/25 09:58:33;;;;;;;3.30;1.90;;;;;;;6.26;85.22;95950.98;105922;1255;61180;-78
2023/02/25 10:01:03;;;;;;;2.30;1.20;;;;;;;6.46;84.10;95953.15;105973;1257;74657;-78
2023/02/25 10:04:00;;;;;;;3.50;1.70;;;;;;;6.58;84.10;95952.17;105920;1262;71091;-78
2023/02/25 10:06:37;;;;;;;7.30;2.50;;;;;;;6.70;82.05;95952.81;106064;1254;72909;-79
2023/02/25 10:09:44;;;;;;;8.60;2.80;;;;;;;6.65;82.03;95952.61;106061;1254;61284;-78
2023/02/25 10:12:44;;;;;;;3.50;1.40;;;;;;;6.50;81.85;95951.65;106007;1254;61161;-78
2023/02/25 10:15:20;;;;;;;6.30;1.60;;;;;;;6.38;81.58;95958.95;106035;1254;74817;-78
2023/02/25 10:18:11;;;;;;;10.40;2.80;;;;;;;6.39;82.81;95955.45;106098;1254;70403;-79
2023/02/25 10:21:29;;;;;;;8.10;2.80;;;;;;;6.46;82.69;95951.78;106209;1258;71155;-78
2023/02/25 10:24:08;;;;;;;7.60;2.90;;;;;;;6.56;83.02;95949.36;105834;1258;61221;-78
2023/02/25 10:26:40;;;;;;;6.90;1.90;;;;;;;6.65;83.06;95947.27;106031;1258;61227;-78
2023/02/25 10:29:11;;;;;;;7.70;1.90;;;;;;;6.76;83.94;95944.16;106010;1254;73536;-78
2023/02/25 10:31:38;;;;;;;6.40;2.70;;;;;;;6.76;83.58;95943.09;106073;1254;70811;-79
2023/02/25 10:34:20;;;;;;;4.70;1.90;;;;;;;6.80;83.73;95936.54;106026;1254;72589;-78
2023/02/25 10:36:51;;;;;;;7.00;2.20;;;;;;;6.75;82.81;95941.45;106181;1254;61257;-79
2023/02/25 10:39:18;;;;;;;3.90;1.80;;;;;;;6.80;82.90;95941.05;106225;1254;61196;-78
2023/02/25 10:41:44;;;;;;;7.60;2.60;;;;;;;6.79;81.68;95940.44;106035;1254;61329;-77
2023/02/25 10:44:11;;;;;;;3.70;2.20;;;;;;;6.82;83.25;95939.72;105986;1258;61355;-78
2023/02/25 10:46:45;;;;;;;9.40;3.70;;;;;;;6.87;84.14;95934.32;105966;1254;71636;-78
2023/02/25 10:49:24;;;;;;;5.20;2.60;;;;;;;6.83;83.49;95932.01;106073;1254;61237;-79
2023/02/25 10:52:04;;;;;;;5.30;2.40;;;;;;;6.60;84.10;95943.20;106184;1254;61295;-78
2023/02/25 10:54:32;;;;;;;4.40;2.30;;;;;;;6.33;84.14;95952.08;106061;1254;73750;-79
2023/02/25 10:57:01;;;;;;;5.70;3.40;;;;;;;6.11;84.84;95955.89;106086;1254;70644;-78
2023/02/25 10:59:35;;;;;;;4.50;2.50;;;;;;;6.01;85.62;95953.70;106112;1254;71924;-79
2023/02/25 11:02:02;;;;;;;4.70;2.20;;;;;;;5.81;87.40;95953.67;106060;1254;61222;-78
2023/02/25 11:04:36;;;;;;;7.50;2.30;;;;;;;5.75;88.22;95946.89;105980;1254;61295;-79
2023/02/25 11:07:35;;;;;;;4.60;3.10;;;;;;;5.57;89.14;95941.39;106068;1254;76086;-77
2023/02/25 11:10:16;;;;;;;4.50;2.10;;;;;;;5.52;89.67;95940.29;105958;1254;70975;-77
2023/02/25 11:12:47;;;;;;;9.70;5.00;;;;;;;5.63;90.03;95937.77;106098;1254;73009;-78
2023/02/25 11:15:19;;;;;;;4.30;2.30;;;;;;;5.77;90.11;95940.36;105974;1254;61352;-77
2023/02/25 11:17:45;;;;;;;5.60;2.80;;;;;;;5.95;89.05;95942.27;106099;1254;61159;-78
2023/02/25 11:20:33;;;;;;;5.50;2.90;;;;;;;6.02;89.70;95948.61;105933;1256;63234;-77
2023/02/25 11:22:59;;;;;;;9.30;3.90;;;;;;;6.21;88.57;95947.50;106077;1254;71003;-77
2023/02/25 11:25:36;;;;;;;5.50;3.60;;;;;;;6.31;88.44;95942.65;106037;1258;61227;-77
2023/02/25 11:28:02;;;;;;;3.70;2.60;;;;;;;6.32;88.08;95942.04;106080;1258;61311;-78
2023/02/25 11:30:31;;;;;;;5.80;2.10;;;;;;;6.40;88.09;95944.99;106002;1254;61311;-77
2023/02/25 11:32:57;;;;;;;5.60;2.30;;;;;;;6.38;85.96;95940.95;106062;1254;73349;-78